Time;durP1;ratioP1;P1;durP2;ratioP2;P2;SDS_P1;SDS_P2;PMS_P1;PMS_P2;Temp;Humidity;BMP_temperature;BMP_pressure;BME280_temperature;BME280_humidity;BME280_pressure;Samples;Min_cycle;Max_cycle;Signal;HPM_P1;HPM_P2
2022/04/18 00:02:06;;;;;;;36.45;16.85;;;;;;;4.20;60.83;100734.78;2156573;80;21275;-78
2022/04/18 00:05:11;;;;;;;36.95;17.52;;;;;;;4.19;60.92;100728.31;2152149;80;21087;-78
2022/04/18 00:08:12;;;;;;;36.80;17.25;;;;;;;4.15;60.94;100727.70;2158789;80;21016;-78
2022/04/18 00:11:14;;;;;;;42.90;18.42;;;;;;;4.10;60.97;100719.31;2182103;79;21034;-78
2022/04/18 00:14:16;;;;;;;42.08;20.52;;;;;;;4.07;61.06;100718.22;2210478;78;20972;-78
2022/04/18 00:17:17;;;;;;;44.03;20.80;;;;;;;3.98;61.15;100718.41;2205624;79;21016;-78
2022/04/18 00:20:23;;;;;;;42.85;19.60;;;;;;;3.86;61.17;100716.67;2215772;78;20968;-78
2022/04/18 00:23:29;;;;;;;41.25;19.15;;;;;;;3.73;61.31;100715.84;2208727;78;20990;-78
2022/04/18 00:26:31;;;;;;;38.92;17.12;;;;;;;3.57;61.67;100715.59;2218040;79;21059;-78
2022/04/18 00:29:33;;;;;;;30.85;14.90;;;;;;;3.48;62.01;100714.93;2202794;78;20992;-78
2022/04/18 00:32:35;;;;;;;29.95;14.70;;;;;;;3.42;62.04;100712.73;2209052;79;21032;-78
2022/04/18 00:35:40;;;;;;;37.60;17.20;;;;;;;3.42;62.09;100708.80;2214047;79;21541;-79
2022/04/18 00:38:44;;;;;;;37.85;18.85;;;;;;;3.43;62.15;100709.16;2200268;79;21024;-78
2022/04/18 00:41:45;;;;;;;42.38;18.55;;;;;;;3.34;61.98;100703.24;2206171;79;21029;-78
2022/04/18 00:44:49;;;;;;;33.85;16.02;;;;;;;3.39;62.15;100703.77;2198159;78;20996;-78
2022/04/18 00:47:51;;;;;;;32.53;15.05;;;;;;;3.40;62.33;100705.91;2217640;78;20971;-77
2022/04/18 00:50:54;;;;;;;25.77;12.80;;;;;;;3.40;62.64;100693.63;2211194;79;21601;-78
2022/04/18 00:53:58;;;;;;;24.70;12.98;;;;;;;3.40;62.77;100691.48;2209124;79;21281;-78
2022/04/18 00:57:02;;;;;;;30.23;13.15;;;;;;;3.46;62.83;100681.39;2213463;78;21030;-77
2022/04/18 01:00:05;;;;;;;23.05;11.85;;;;;;;3.49;62.88;100678.58;2210856;78;21000;-78
2022/04/18 01:03:07;;;;;;;30.08;13.75;;;;;;;3.51;62.85;100674.52;2208532;79;21012;-77
2022/04/18 01:06:12;;;;;;;28.05;12.75;;;;;;;3.52;62.96;100666.56;2219386;78;21098;-78
2022/04/18 01:09:16;;;;;;;22.13;10.82;;;;;;;3.52;63.07;100666.56;2216671;79;21053;-78
2022/04/18 01:12:20;;;;;;;25.77;12.40;;;;;;;3.48;63.09;100656.38;2208162;79;21658;-78
2022/04/18 01:15:35;;;;;;;28.67;12.13;;;;;;;3.43;63.18;100655.38;2199208;79;21008;-79
2022/04/18 01:18:49;;;;;;;32.33;12.75;;;;;;;3.47;63.31;100653.39;2207798;79;20996;-78
2022/04/18 01:21:55;;;;;;;27.30;11.65;;;;;;;3.45;63.35;100653.97;2195443;79;21098;-79
2022/04/18 01:29:03;;;;;;;25.97;11.80;;;;;;;3.37;63.50;100651.39;2175754;79;21520;-78
2022/04/18 01:32:08;;;;;;;28.77;13.08;;;;;;;3.41;63.72;100653.36;2185609;79;21582;-79
2022/04/18 01:35:14;;;;;;;22.60;10.88;;;;;;;3.43;63.79;100648.81;2204030;79;20972;-78
2022/04/18 01:38:18;;;;;;;27.80;11.78;;;;;;;3.44;63.95;100644.44;2187777;79;20982;-78
2022/04/18 01:41:23;;;;;;;27.70;12.23;;;;;;;3.45;64.06;100641.69;2203459;79;21053;-77
2022/04/18 01:44:25;;;;;;;29.10;12.70;;;;;;;3.51;64.24;100641.72;2206877;79;20971;-79
2022/04/18 01:47:31;;;;;;;25.30;12.73;;;;;;;3.51;64.34;100635.16;2207282;79;21055;-78
2022/04/18 01:50:33;;;;;;;26.23;13.32;;;;;;;3.48;64.28;100630.14;2207356;79;21617;-78
2022/04/18 01:53:34;;;;;;;33.92;14.78;;;;;;;3.46;64.52;100624.98;2205032;79;21030;-79
2022/04/18 01:56:36;;;;;;;31.15;14.87;;;;;;;3.51;64.67;100621.56;2207810;79;22093;-78
2022/04/18 01:59:39;;;;;;;30.52;14.58;;;;;;;3.57;64.79;100615.88;2214716;79;21086;-78
2022/04/18 02:02:43;;;;;;;28.30;13.32;;;;;;;3.62;65.00;100613.41;2123702;82;21525;-78
2022/04/18 02:05:50;;;;;;;29.63;13.72;;;;;;;3.64;65.04;100607.59;2132297;82;21089;-78
2022/04/18 02:08:52;;;;;;;31.97;14.60;;;;;;;3.66;65.05;100616.17;2158155;80;21548;-78
2022/04/18 02:11:56;;;;;;;31.93;15.20;;;;;;;3.69;65.28;100604.13;2132367;82;21071;-78
2022/04/18 02:15:02;;;;;;;30.52;15.45;;;;;;;3.70;65.39;100600.58;2215170;79;21032;-78
2022/04/18 02:18:05;;;;;;;30.95;14.87;;;;;;;3.71;65.41;100607.49;2193599;79;21050;-79
2022/04/18 02:21:11;;;;;;;30.55;16.27;;;;;;;3.72;65.63;100604.77;2212899;79;20954;-78
2022/04/18 02:24:15;;;;;;;32.28;16.25;;;;;;;3.70;65.63;100602.72;2192986;79;21918;-78
2022/04/18 02:27:19;;;;;;;31.97;16.93;;;;;;;3.69;65.75;100596.27;2208432;79;21106;-78
2022/04/18 02:30:24;;;;;;;31.17;16.60;;;;;;;3.70;65.66;100583.52;2216001;77;21068;-78
2022/04/18 02:33:30;;;;;;;30.85;16.37;;;;;;;3.73;65.65;100588.55;2212699;77;20986;-78
2022/04/18 02:36:37;;;;;;;36.00;17.55;;;;;;;3.72;65.68;100581.15;2216223;79;21577;-78
2022/04/18 02:39:38;;;;;;;36.33;17.35;;;;;;;3.74;65.54;100582.34;2209681;79;21661;-78
2022/04/18 02:42:42;;;;;;;39.18;18.82;;;;;;;3.76;65.46;100572.57;2216229;79;21071;-78
2022/04/18 02:45:50;;;;;;;42.95;20.30;;;;;;;3.76;65.32;100572.57;2219931;78;21114;-78
2022/04/18 02:48:57;;;;;;;39.78;18.07;;;;;;;3.70;65.18;100572.55;2210683;79;21372;-80
2022/04/18 02:52:01;;;;;;;42.45;19.90;;;;;;;3.68;65.23;100576.22;2217593;77;21025;-80
2022/04/18 02:55:08;;;;;;;42.62;20.23;;;;;;;3.47;65.35;100576.83;2212298;79;21051;-79
2022/04/18 02:58:09;;;;;;;41.08;20.40;;;;;;;3.30;65.50;100578.51;2191086;79;21257;-79
2022/04/18 03:01:14;;;;;;;41.83;21.90;;;;;;;3.21;65.61;100580.00;2216073;79;21046;-79
2022/04/18 03:04:16;;;;;;;44.90;21.80;;;;;;;3.13;65.69;100571.36;2207486;79;21928;-80
2022/04/18 03:07:19;;;;;;;39.80;18.85;;;;;;;3.06;65.92;100564.85;2127887;82;21587;-79
2022/04/18 03:11:02;;;;;;;34.65;18.40;;;;;;;3.05;65.92;100562.36;2208345;77;21141;-80
2022/04/18 03:13:24;;;;;;;31.50;17.45;;;;;;;3.03;66.00;100560.30;2177283;79;21002;-79
2022/04/18 03:16:33;;;;;;;35.35;17.90;;;;;;;2.98;66.15;100559.30;2175178;79;21036;-79
2022/04/18 03:19:37;;;;;;;32.78;15.78;;;;;;;2.97;66.21;100556.80;2180384;79;21085;-80
2022/04/18 03:22:41;;;;;;;33.25;17.50;;;;;;;2.95;65.99;100554.75;2194992;79;21552;-81
2022/04/18 03:25:46;;;;;;;34.78;17.57;;;;;;;2.92;65.79;100554.49;2195663;79;20954;-79
2022/04/18 03:28:48;;;;;;;35.40;17.00;;;;;;;2.81;65.75;100555.23;2176430;79;21061;-80
2022/04/18 03:31:50;;;;;;;33.85;17.62;;;;;;;2.70;65.70;100552.52;2198557;79;20987;-80
2022/04/18 03:34:54;;;;;;;66.45;31.68;;;;;;;2.51;66.31;100548.20;2176186;79;21009;-79
2022/04/18 03:41:18;;;;;;;33.20;16.52;;;;;;;2.37;66.71;100547.81;2200216;79;21100;-80
2022/04/18 03:44:23;;;;;;;31.65;15.65;;;;;;;2.33;66.51;100545.02;2200903;79;21055;-80
2022/04/18 03:47:30;;;;;;;30.60;14.38;;;;;;;2.24;66.35;100549.09;2196238;79;21026;-80
2022/04/18 03:50:36;;;;;;;20.80;11.85;;;;;;;2.21;66.00;100548.83;2197828;79;21313;-80
2022/04/18 03:53:41;;;;;;;21.33;11.53;;;;;;;2.20;65.63;100539.78;2202589;79;21103;-80
2022/04/18 03:56:45;;;;;;;24.18;12.45;;;;;;;2.18;65.55;100539.88;2173205;79;21019;-79
2022/04/18 03:59:58;;;;;;;23.05;10.70;;;;;;;2.16;65.24;100546.98;2198091;79;21095;-79
2022/04/18 04:03:06;;;;;;;20.37;10.82;;;;;;;2.11;64.82;100549.09;2202683;79;21764;-79
2022/04/18 04:06:09;;;;;;;24.45;11.68;;;;;;;2.11;64.69;100545.17;2190832;79;21072;-79
2022/04/18 04:09:13;;;;;;;26.12;11.57;;;;;;;2.16;64.57;100550.91;2196499;79;21551;-80
2022/04/18 04:12:27;;;;;;;21.52;11.53;;;;;;;2.27;64.47;100546.75;2177192;79;22699;-79
2022/04/18 04:15:33;;;;;;;21.62;11.97;;;;;;;2.47;64.49;100544.92;2203794;79;21598;-80
2022/04/18 04:18:41;;;;;;;23.22;12.15;;;;;;;2.83;64.17;100549.42;2206615;79;21524;-80
2022/04/18 04:21:47;;;;;;;23.90;11.88;;;;;;;3.22;63.86;100551.98;2211651;79;21044;-80
2022/04/18 04:24:51;;;;;;;22.80;12.55;;;;;;;3.46;63.04;100544.12;2209053;79;21610;-80
2022/04/18 04:27:53;;;;;;;23.60;12.58;;;;;;;3.76;63.08;100547.63;2205114;79;21056;-80
2022/04/18 04:30:55;;;;;;;24.52;12.93;;;;;;;4.17;62.61;100546.38;2174244;79;21798;-81
2022/04/18 04:33:57;;;;;;;23.62;12.95;;;;;;;4.63;62.33;100545.49;2208816;79;21252;-80
2022/04/18 04:37:02;;;;;;;26.70;13.70;;;;;;;5.15;61.86;100530.43;2207792;79;21679;-80
2022/04/18 04:40:09;;;;;;;26.07;14.73;;;;;;;5.65;61.37;100535.20;2198994;79;21043;-80
2022/04/18 04:43:15;;;;;;;21.37;13.40;;;;;;;6.09;60.74;100532.06;2177724;79;21042;-80
2022/04/18 04:46:22;;;;;;;25.80;14.73;;;;;;;6.54;60.14;100537.07;2212874;79;21071;-80
2022/04/18 04:49:43;;;;;;;29.55;15.10;;;;;;;6.94;59.44;100543.70;2210169;79;21840;-80
2022/04/18 04:53:00;;;;;;;26.65;14.87;;;;;;;7.27;58.45;100541.73;2200309;79;21534;-80
2022/04/18 04:56:05;;;;;;;31.40;15.85;;;;;;;7.45;57.75;100535.30;2162485;81;21018;-80
2022/04/18 04:59:10;;;;;;;27.93;16.32;;;;;;;7.62;57.26;100539.08;2160568;81;21082;-80
2022/04/18 05:02:11;;;;;;;27.62;16.35;;;;;;;7.79;56.73;100538.39;2154686;81;21529;-79
2022/04/18 05:05:13;;;;;;;30.80;17.60;;;;;;;7.69;55.44;100539.39;2122719;81;21783;-78
2022/04/18 05:08:15;;;;;;;25.37;15.30;;;;;;;7.63;54.53;100541.60;2099739;80;21061;-79
2022/04/18 05:11:16;;;;;;;29.23;16.40;;;;;;;7.66;54.73;100538.31;2126093;82;21024;-78
2022/04/18 05:14:31;;;;;;;35.05;16.77;;;;;;;7.81;54.54;100543.55;2137461;81;21036;-79
2022/04/18 05:17:39;;;;;;;26.30;16.23;;;;;;;7.57;52.55;100540.84;2137499;82;21100;-78
2022/04/18 05:20:42;;;;;;;27.30;15.65;;;;;;;7.28;54.23;100543.89;2135294;81;21011;-78
2022/04/18 05:23:48;;;;;;;24.65;14.13;;;;;;;7.35;53.78;100543.22;2116244;82;21016;-78
2022/04/18 05:26:55;;;;;;;23.67;12.65;;;;;;;7.68;53.19;100537.70;2136335;81;21611;-77
2022/04/18 05:29:57;;;;;;;27.13;14.00;;;;;;;8.05;53.20;100542.66;2093594;82;21099;-78
2022/04/18 05:32:59;;;;;;;24.32;13.72;;;;;;;8.22;53.11;100541.11;2141832;81;21031;-78
2022/04/18 05:36:01;;;;;;;26.20;14.55;;;;;;;8.61;52.61;100533.59;2144176;81;21101;-78
2022/04/18 05:39:04;;;;;;;26.73;15.35;;;;;;;8.48;50.68;100534.76;2147958;81;21048;-86
2022/04/18 05:42:10;;;;;;;27.48;17.17;;;;;;;8.01;51.43;100542.58;2215527;79;21024;-88
2022/04/18 05:45:12;;;;;;;25.50;14.87;;;;;;;8.36;51.64;100542.45;2222817;79;21084;-84
2022/04/18 05:48:16;;;;;;;29.57;15.60;;;;;;;8.45;51.19;100544.30;2221139;79;21816;-86
2022/04/18 05:51:21;;;;;;;21.50;13.55;;;;;;;8.99;51.07;100545.87;2201214;79;21106;-85
2022/04/18 05:54:23;;;;;;;26.15;15.50;;;;;;;9.14;50.24;100543.06;2216828;79;20985;-88
2022/04/18 05:57:36;;;;;;;26.02;14.98;;;;;;;9.57;50.49;100544.70;2192175;79;21071;-86
2022/04/18 06:00:41;;;;;;;25.20;13.72;;;;;;;9.68;48.15;100547.12;2199090;78;21086;-86
2022/04/18 06:03:50;;;;;;;31.82;16.20;;;;;;;8.82;47.27;100551.44;2218217;79;21484;-86
2022/04/18 06:06:54;;;;;;;27.67;15.65;;;;;;;8.12;47.77;100552.17;2206216;79;21071;-86
2022/04/18 06:10:01;;;;;;;29.52;16.95;;;;;;;7.76;48.30;100555.02;2206992;79;21019;-85
2022/04/18 06:13:05;;;;;;;29.65;16.55;;;;;;;7.96;49.66;100557.18;2189645;79;21052;-85
2022/04/18 06:16:09;;;;;;;28.50;16.25;;;;;;;8.35;49.25;100551.87;2205371;79;21057;-85
2022/04/18 06:19:15;;;;;;;29.92;15.23;;;;;;;8.45;48.17;100552.73;2206253;79;21079;-86
2022/04/18 06:22:22;;;;;;;26.02;14.45;;;;;;;8.61;48.80;100556.91;2211634;78;21078;-85
2022/04/18 06:25:24;;;;;;;28.40;15.75;;;;;;;9.02;48.76;100547.39;2190300;78;21539;-85
2022/04/18 06:28:33;;;;;;;28.17;14.70;;;;;;;9.45;48.56;100545.41;2204623;79;21317;-85
2022/04/18 06:31:33;;;;;;;24.23;14.75;;;;;;;10.01;47.97;100540.32;2204925;78;20977;-74
2022/04/18 06:34:42;;;;;;;29.80;16.32;;;;;;;10.46;46.65;100538.54;2208673;77;21026;-79
2022/04/18 06:37:48;;;;;;;26.27;16.50;;;;;;;10.23;46.42;100540.84;2210962;77;21086;-83
2022/04/18 06:41:11;;;;;;;29.85;18.40;;;;;;;10.17;46.31;100536.98;2212227;78;21498;-80
2022/04/18 06:44:13;;;;;;;32.78;16.90;;;;;;;10.12;46.55;100543.23;2206871;78;21034;-82
2022/04/18 06:47:19;;;;;;;28.70;15.98;;;;;;;10.42;46.99;100549.96;2202420;79;21462;-80
2022/04/18 06:50:27;;;;;;;29.40;16.25;;;;;;;10.55;45.09;100550.86;2206010;79;21572;-87
2022/04/18 06:53:49;;;;;;;28.87;16.27;;;;;;;10.23;45.59;100542.98;2213277;78;21550;-87
2022/04/18 06:57:07;;;;;;;29.35;16.35;;;;;;;10.40;45.25;100548.45;2199917;78;21797;-77
2022/04/18 07:00:14;;;;;;;26.55;15.20;;;;;;;10.42;45.16;100546.48;2208184;79;21467;-73
2022/04/18 07:03:17;;;;;;;21.68;14.20;;;;;;;11.03;45.18;100544.66;2205747;79;21012;-76
2022/04/18 07:06:19;;;;;;;25.00;14.70;;;;;;;11.03;45.18;100544.66;2187661;79;21508;-73
2022/04/18 07:09:24;;;;;;;30.37;15.55;;;;;;;11.25;45.43;100523.33;2211074;78;21774;-75
2022/04/18 07:12:29;;;;;;;24.07;14.00;;;;;;;11.72;45.36;100534.75;2208469;78;21058;-76
2022/04/18 07:15:32;;;;;;;24.77;14.60;;;;;;;12.07;44.58;100534.45;2206107;79;21929;-80
2022/04/18 07:18:36;;;;;;;25.37;14.30;;;;;;;12.03;43.93;100533.13;2207554;79;21342;-78
2022/04/18 07:21:46;;;;;;;24.65;15.48;;;;;;;12.36;44.21;100528.28;2212415;78;21871;-80
2022/04/18 07:24:49;;;;;;;24.60;12.82;;;;;;;12.83;43.89;100539.00;2211582;78;21502;-79
2022/04/18 07:27:55;;;;;;;19.48;12.18;;;;;;;13.27;42.91;100534.55;2195593;78;20997;-79
2022/04/18 07:30:56;;;;;;;23.83;12.98;;;;;;;13.05;41.51;100539.27;2213846;78;20973;-80
2022/04/18 07:33:57;;;;;;;25.30;12.82;;;;;;;12.44;41.49;100536.26;2210796;79;20969;-78
2022/04/18 07:36:59;;;;;;;19.12;12.68;;;;;;;12.28;42.12;100537.12;2216266;78;21267;-78
2022/04/18 07:40:01;;;;;;;18.17;11.63;;;;;;;12.21;41.13;100532.13;2216178;78;20989;-75
2022/04/18 07:43:02;;;;;;;21.77;11.93;;;;;;;12.10;41.24;100535.95;2208516;78;21090;-78
2022/04/18 07:46:07;;;;;;;15.90;10.85;;;;;;;12.22;40.53;100535.11;2191332;79;21099;-78
2022/04/18 07:49:15;;;;;;;19.80;10.78;;;;;;;12.16;41.49;100531.80;2202394;79;21590;-79
2022/04/18 07:52:19;;;;;;;18.52;10.72;;;;;;;12.05;40.37;100543.12;2207495;79;21025;-79
2022/04/18 07:55:26;;;;;;;18.67;11.73;;;;;;;11.85;40.89;100543.05;2210907;79;21529;-80
2022/04/18 07:58:28;;;;;;;17.48;11.35;;;;;;;11.88;41.88;100536.95;2213826;78;21082;-80
2022/04/18 08:01:34;;;;;;;13.35;9.10;;;;;;;12.02;41.50;100538.61;2206720;77;21044;-79
2022/04/18 08:04:38;;;;;;;14.23;8.43;;;;;;;12.17;40.76;100532.14;2205578;79;21058;-79
2022/04/18 08:07:39;;;;;;;19.85;9.93;;;;;;;12.11;39.73;100534.97;2214409;79;20970;-79
2022/04/18 08:10:42;;;;;;;13.88;9.45;;;;;;;12.13;39.76;100537.45;2201799;78;21038;-79
2022/04/18 08:13:48;;;;;;;17.67;10.28;;;;;;;11.80;39.68;100532.10;2212030;79;20997;-77
2022/04/18 08:17:08;;;;;;;17.10;10.08;;;;;;;11.72;40.06;100530.77;2217775;79;21758;-77
2022/04/18 08:20:14;;;;;;;21.30;12.30;;;;;;;11.67;40.60;100532.56;2234964;77;21000;-77
2022/04/18 08:23:16;;;;;;;15.05;10.03;;;;;;;11.99;41.01;100534.95;2206309;79;21519;-72
2022/04/18 08:26:38;;;;;;;;;;;;;;;12.13;40.02;100531.63;2215852;79;21072;-71
2022/04/18 08:29:46;;;;;;;18.87;11.53;;;;;;;12.26;40.72;100522.64;2222202;79;20316;-78
2022/04/18 08:32:52;;;;;;;18.60;10.48;;;;;;;12.61;39.60;100523.24;2225172;79;21322;-77
2022/04/18 08:35:53;;;;;;;18.48;11.20;;;;;;;12.39;38.95;100522.63;2212223;79;21721;-73
2022/04/18 08:38:55;;;;;;;16.23;10.35;;;;;;;12.24;40.02;100523.81;2213523;79;21711;-77
2022/04/18 08:42:16;;;;;;;16.17;10.35;;;;;;;12.51;38.16;100523.44;2214812;79;21092;-77
2022/04/18 08:45:23;;;;;;;13.13;8.53;;;;;;;12.65;38.35;100515.77;2214870;79;21148;-80
2022/04/18 08:55:06;;;;;;;14.07;8.40;;;;;;;12.88;38.42;100511.86;2209475;79;20155;-77
2022/04/18 08:58:11;;;;;;;14.85;8.70;;;;;;;13.06;37.74;100508.45;2210636;79;21058;-76
2022/04/18 09:01:13;;;;;;;11.88;7.50;;;;;;;13.02;36.77;100504.48;2211865;79;21585;-77
2022/04/18 09:04:35;;;;;;;11.45;7.25;;;;;;;13.02;35.71;100501.81;2227138;79;21362;-76
2022/04/18 09:07:43;;;;;;;11.50;7.42;;;;;;;12.71;34.79;100495.11;2240094;78;21027;-76
2022/04/18 09:15:09;;;;;;;11.55;7.20;;;;;;;12.53;35.91;100490.02;2194652;79;21805;-76
2022/04/18 09:18:19;;;;;;;5.30;4.50;;;;;;;13.06;35.97;100480.98;2219841;79;21049;-76
2022/04/18 09:21:23;;;;;;;6.10;4.37;;;;;;;13.17;31.89;100484.08;2212433;77;21912;-77
2022/04/18 09:24:32;;;;;;;8.10;4.90;;;;;;;12.93;33.00;100474.39;2187230;78;21552;-77
2022/04/18 09:27:57;;;;;;;7.70;4.90;;;;;;;13.18;34.24;100473.77;2198126;79;21031;-76
2022/04/18 09:31:09;;;;;;;6.10;3.70;;;;;;;13.20;33.83;100469.08;2199690;78;21378;-78
2022/04/18 09:34:12;;;;;;;6.87;4.10;;;;;;;12.86;32.28;100468.59;2206445;79;21008;-84
2022/04/18 09:37:18;;;;;;;7.78;3.80;;;;;;;12.88;33.00;100466.09;2196212;79;21026;-75
2022/04/18 09:40:31;;;;;;;5.45;3.85;;;;;;;13.28;31.85;100462.08;2204854;79;21106;-79
2022/04/18 09:43:45;;;;;;;6.28;4.20;;;;;;;13.22;31.55;100458.25;2211742;78;21273;-76
2022/04/18 09:46:52;;;;;;;6.28;4.40;;;;;;;13.14;31.50;100463.63;2191205;79;21005;-78
2022/04/18 09:49:58;;;;;;;6.03;4.10;;;;;;;13.10;32.30;100470.33;2210356;79;21772;-77
2022/04/18 09:53:03;;;;;;;5.65;4.30;;;;;;;12.81;31.49;100461.14;2203941;78;21053;-76
2022/04/18 09:56:05;;;;;;;6.80;3.83;;;;;;;12.95;33.11;100443.57;2187564;78;21040;-80
2022/04/18 09:59:47;;;;;;;8.55;4.75;;;;;;;13.14;31.84;100440.98;2228081;79;21267;-79
2022/04/18 10:02:56;;;;;;;8.18;4.97;;;;;;;13.15;31.80;100438.63;2226913;79;20969;-78
2022/04/18 10:06:01;;;;;;;8.13;4.80;;;;;;;12.89;32.24;100436.28;2190206;79;21015;-78
2022/04/18 10:09:05;;;;;;;7.42;5.17;;;;;;;12.43;32.00;100437.47;2202942;79;20989;-79
2022/04/18 10:12:12;;;;;;;8.43;5.67;;;;;;;12.59;32.67;100424.11;2209343;79;21037;-79
2022/04/18 10:15:14;;;;;;;8.55;5.85;;;;;;;12.91;33.24;100428.45;2199027;79;21479;-78
2022/04/18 10:18:17;;;;;;;6.28;4.58;;;;;;;13.15;32.99;100430.64;2197601;79;21007;-78
2022/04/18 10:21:30;;;;;;;5.55;4.20;;;;;;;13.11;31.89;100427.50;2144208;82;21302;-77
2022/04/18 10:28:51;;;;;;;7.90;4.30;;;;;;;13.40;31.40;100422.02;2213781;79;21061;-78
2022/04/18 10:32:38;;;;;;;6.65;3.67;;;;;;;13.04;31.34;100421.23;2245178;79;21041;-78
2022/04/18 10:44:34;;;;;;;6.55;3.72;;;;;;;12.60;30.65;100412.95;2209315;79;21035;-76
2022/04/18 10:48:01;;;;;;;6.60;3.67;;;;;;;12.65;30.48;100409.28;2210193;80;21027;-79
2022/04/18 10:51:08;;;;;;;5.47;3.95;;;;;;;12.88;31.31;100396.84;2210323;80;21082;-77
2022/04/18 10:54:30;;;;;;;5.67;3.80;;;;;;;13.15;31.25;100406.66;2203087;80;21034;-77
2022/04/18 10:58:14;;;;;;;4.87;3.22;;;;;;;13.30;31.21;100406.78;2210350;80;20999;-76
2022/04/18 11:01:19;;;;;;;5.30;3.55;;;;;;;13.28;30.61;100392.80;2176388;79;21045;-77
2022/04/18 11:04:28;;;;;;;4.80;3.15;;;;;;;13.30;29.90;100400.12;2208331;79;20989;-77
2022/04/18 11:07:44;;;;;;;4.55;3.30;;;;;;;13.19;30.60;100387.49;2157890;79;21837;-77
2022/04/18 11:10:46;;;;;;;9.48;6.92;;;;;;;13.13;30.02;100393.53;2215587;79;21833;-77
2022/04/18 11:13:49;;;;;;;4.70;4.12;;;;;;;12.58;30.51;100390.49;2214753;79;21062;-77
2022/04/18 11:16:56;;;;;;;4.62;3.85;;;;;;;12.41;31.14;100396.89;2212390;80;21037;-76
2022/04/18 11:20:56;;;;;;;5.70;3.60;;;;;;;12.51;30.94;100386.88;2174006;82;21308;-72
2022/04/18 11:28:16;;;;;;;6.22;3.30;;;;;;;12.98;30.61;100371.34;2234322;79;21109;-74
2022/04/18 11:40:13;;;;;;;5.17;3.90;;;;;;;12.56;30.78;100377.88;2230230;78;20992;-81
2022/04/18 11:43:18;;;;;;;5.75;3.60;;;;;;;12.20;30.64;100367.70;2205323;80;21031;-85
2022/04/18 11:55:49;;;;;;;6.65;3.60;;;;;;;12.28;30.96;100350.89;2210265;80;21107;-79
2022/04/18 11:58:54;;;;;;;4.40;3.52;;;;;;;12.03;31.21;100348.30;2182415;79;21040;-84
2022/04/18 12:08:47;;;;;;;5.72;3.95;;;;;;;12.05;31.09;100335.66;2190842;79;21511;-74
2022/04/18 12:11:49;;;;;;;6.10;4.22;;;;;;;12.14;31.73;100339.63;2215832;78;21052;-80
2022/04/18 12:15:05;;;;;;;4.85;3.95;;;;;;;12.49;32.17;100332.48;2149556;82;21156;-77
2022/04/18 12:18:17;;;;;;;6.10;3.67;;;;;;;12.81;31.76;100326.67;2144156;79;21022;-76
2022/04/18 12:21:19;;;;;;;5.50;3.98;;;;;;;12.94;31.63;100322.89;2204070;79;21021;-75
2022/04/18 12:24:59;;;;;;;11.12;5.22;;;;;;;13.04;31.59;100322.67;2203768;80;21273;-81
2022/04/18 12:28:06;;;;;;;7.10;4.33;;;;;;;12.92;30.53;100320.94;2199526;79;20998;-80
2022/04/18 12:31:13;;;;;;;8.55;4.67;;;;;;;12.59;30.56;100315.48;2202822;79;22014;-85
2022/04/18 12:34:20;;;;;;;6.28;4.22;;;;;;;12.60;31.36;100309.14;2204365;80;20945;-77
2022/04/18 12:37:30;;;;;;;6.92;4.28;;;;;;;12.67;31.01;100300.77;2208220;79;21048;-88
2022/04/18 12:41:01;;;;;;;7.17;4.40;;;;;;;12.48;30.89;100308.72;2146420;82;21107;-89
2022/04/18 12:52:12;;;;;;;8.08;4.22;;;;;;;12.29;31.52;100301.98;2134816;83;21230;-89
2022/04/18 12:55:15;;;;;;;7.42;3.85;;;;;;;12.26;31.63;100291.69;2063495;83;21083;-90
2022/04/18 12:58:21;;;;;;;6.22;4.20;;;;;;;12.18;30.82;100287.73;2071447;83;21607;-91
2022/04/18 13:01:35;;;;;;;8.88;4.40;;;;;;;12.05;31.59;100281.14;2064396;85;21526;-76
2022/04/18 13:04:41;;;;;;;6.33;4.22;;;;;;;12.16;31.96;100277.76;2068150;83;21817;-76
2022/04/18 13:08:44;;;;;;;7.47;4.30;;;;;;;12.29;31.59;100274.05;2036182;86;21078;-76
2022/04/18 13:11:51;;;;;;;12.40;4.83;;;;;;;12.54;31.35;100268.91;2095536;83;21026;-75
2022/04/18 13:15:05;;;;;;;7.60;4.45;;;;;;;12.44;31.76;100268.80;2114801;80;21071;-75
2022/04/18 13:19:01;;;;;;;11.55;6.85;;;;;;;12.21;31.37;100264.77;2208955;79;21093;-77
2022/04/18 13:22:24;;;;;;;7.35;4.60;;;;;;;11.99;31.87;100269.84;2204898;79;21081;-76
2022/04/18 13:34:30;;;;;;;6.42;3.92;;;;;;;12.54;32.57;100238.30;2165689;82;21544;-76
2022/04/18 13:51:27;;;;;;;4.45;3.40;;;;;;;12.55;31.30;100241.28;2100599;81;21045;-72
2022/04/18 13:54:29;;;;;;;5.60;4.08;;;;;;;12.42;30.61;100232.25;2205705;80;21488;-73
2022/04/18 13:57:30;;;;;;;4.78;3.65;;;;;;;12.64;31.27;100225.25;2206155;81;21028;-76
2022/04/18 14:05:19;;;;;;;;;;;;;;;12.88;30.49;100223.74;2199891;79;21042;-79
2022/04/18 14:08:26;;;;;;;8.05;3.92;;;;;;;13.06;29.85;100223.92;2207176;79;20128;-79
2022/04/18 14:11:30;;;;;;;6.62;3.75;;;;;;;12.79;29.28;100227.48;2185809;80;21772;-80
2022/04/18 14:26:57;;;;;;;5.40;3.35;;;;;;;11.82;29.29;100209.72;2165833;82;21044;-76
2022/04/18 14:43:32;;;;;;;6.15;3.80;;;;;;;12.13;30.92;100191.66;2165553;82;21041;-76
2022/04/18 14:56:19;;;;;;;45.78;12.37;;;;;;;11.96;28.98;100185.09;2165822;82;21030;-76
2022/04/18 14:59:23;;;;;;;29.77;8.98;;;;;;;11.58;29.95;100180.92;2166419;82;21053;-76
2022/04/18 15:02:27;;;;;;;15.43;5.85;;;;;;;11.43;30.88;100167.53;2155994;82;21704;-74
2022/04/18 15:05:30;;;;;;;7.15;4.05;;;;;;;11.38;30.88;100145.13;2158708;80;21881;-76
2022/04/18 15:08:35;;;;;;;15.88;4.97;;;;;;;11.46;30.55;100162.37;2163480;82;21008;-76
2022/04/18 15:11:37;;;;;;;6.53;3.65;;;;;;;11.47;30.46;100152.06;2161027;81;20942;-76
2022/04/18 15:15:00;;;;;;;15.38;5.12;;;;;;;11.61;30.69;100158.48;2165989;82;21001;-76
2022/04/18 15:22:50;;;;;;;;;;;;;;;11.13;30.82;100139.05;2168955;81;21614;-76
2022/04/18 15:25:51;;;;;;;40.98;11.10;;;;;;;10.87;31.20;100137.92;2213224;79;20465;-77
2022/04/18 15:28:55;;;;;;;19.40;6.75;;;;;;;10.87;31.20;100137.92;2193241;80;20976;-76
2022/04/18 15:32:07;;;;;;;13.10;4.87;;;;;;;10.97;31.22;100159.81;2203317;79;21405;-77
2022/04/18 15:35:11;;;;;;;12.07;5.95;;;;;;;11.09;31.24;100158.97;2209799;79;21040;-77
2022/04/18 15:38:13;;;;;;;7.22;4.50;;;;;;;11.20;31.27;100156.77;2203774;78;21011;-78
2022/04/18 15:41:17;;;;;;;8.03;4.70;;;;;;;11.09;32.08;100136.39;2209772;79;20955;-76
2022/04/18 15:44:23;;;;;;;8.65;5.10;;;;;;;11.13;31.26;100148.34;2211031;79;20988;-79
2022/04/18 15:47:26;;;;;;;10.78;4.92;;;;;;;11.13;31.26;100148.34;2195803;78;21009;-78
2022/04/18 15:50:31;;;;;;;11.33;4.65;;;;;;;11.05;31.53;100152.34;2216667;79;21001;-78
2022/04/18 15:53:31;;;;;;;11.88;5.20;;;;;;;11.09;32.02;100158.45;2210197;77;21014;-77
2022/04/18 15:56:32;;;;;;;12.05;5.30;;;;;;;11.08;31.41;100154.16;2191283;77;20992;-75
2022/04/18 15:59:34;;;;;;;7.47;3.83;;;;;;;11.09;32.07;100150.49;2205877;80;20989;-74
2022/04/18 16:02:36;;;;;;;5.17;3.95;;;;;;;11.12;31.59;100150.19;2216752;78;21072;-77
2022/04/18 16:05:42;;;;;;;15.98;6.35;;;;;;;10.89;31.54;100128.80;2205965;78;21012;-79
2022/04/18 16:08:42;;;;;;;12.58;6.33;;;;;;;10.96;32.18;100152.86;2208502;79;21046;-77
2022/04/18 16:11:44;;;;;;;11.22;5.95;;;;;;;10.96;32.18;100152.86;2206904;79;21254;-79
2022/04/18 16:14:45;;;;;;;7.28;4.03;;;;;;;10.95;31.57;100147.20;2211147;77;21082;-78
2022/04/18 16:17:47;;;;;;;13.53;6.37;;;;;;;10.95;31.57;100147.20;2207911;78;20973;-79
2022/04/18 16:20:48;;;;;;;22.42;10.05;;;;;;;10.88;31.71;100147.05;2214601;79;21287;-78
2022/04/18 16:23:55;;;;;;;19.67;8.68;;;;;;;10.79;31.54;100141.94;2209996;78;21039;-78
2022/04/18 16:26:56;;;;;;;16.70;7.40;;;;;;;10.73;31.34;100144.77;2209153;79;20970;-76
2022/04/18 16:33:17;;;;;;;6.17;3.42;;;;;;;10.58;30.87;100141.92;2210732;79;21533;-78
2022/04/18 16:36:19;;;;;;;18.52;6.70;;;;;;;10.42;30.75;100137.97;2205528;79;21735;-78
2022/04/18 16:39:21;;;;;;;6.70;4.40;;;;;;;10.25;31.54;100143.22;2208502;79;20985;-79
2022/04/18 16:45:51;;;;;;;10.95;4.90;;;;;;;10.16;32.04;100142.03;2211873;79;21296;-72